sensor_id;sensor_type;location;lat;lon;timestamp;temperature;humidity
39621;DHT22;25309;48.686;9.170;2023-06-24T00:02:18;17.20;99.90
39621;DHT22;25309;48.686;9.170;2023-06-24T00:04:45;17.20;99.90
39621;DHT22;25309;48.686;9.170;2023-06-24T00:07:12;17.20;99.90
39621;DHT22;25309;48.686;9.170;2023-06-24T00:09:40;17.20;99.90
39621;DHT22;25309;48.686;9.170;2023-06-24T00:12:08;17.20;99.90
39621;DHT22;25309;48.686;9.170;2023-06-24T00:14:35;17.20;99.90
39621;DHT22;25309;48.686;9.170;2023-06-24T00:17:03;17.10;99.90
39621;DHT22;25309;48.686;9.170;2023-06-24T00:19:31;17.00;99.90
39621;DHT22;25309;48.686;9.170;2023-06-24T00:21:58;17.00;99.90
39621;DHT22;25309;48.686;9.170;2023-06-24T00:24:27;17.00;99.90
39621;DHT22;25309;48.686;9.170;2023-06-24T00:26:56;17.00;99.90
39621;DHT22;25309;48.686;9.170;2023-06-24T00:29:23;16.90;99.90
39621;DHT22;25309;48.686;9.170;2023-06-24T00:31:50;16.90;99.90
39621;DHT22;25309;48.686;9.170;2023-06-24T00:34:17;16.90;99.90
39621;DHT22;25309;48.686;9.170;2023-06-24T00:36:47;16.90;99.90
39621;DHT22;25309;48.686;9.170;2023-06-24T00:39:14;16.90;99.90
39621;DHT22;25309;48.686;9.170;2023-06-24T00:41:41;16.80;99.90
39621;DHT22;25309;48.686;9.170;2023-06-24T00:44:09;16.90;99.90
39621;DHT22;25309;48.686;9.170;2023-06-24T00:46:36;16.80;99.90
39621;DHT22;25309;48.686;9.170;2023-06-24T00:49:03;16.70;99.90
39621;DHT22;25309;48.686;9.170;2023-06-24T00:51:30;16.70;99.90
39621;DHT22;25309;48.686;9.170;2023-06-24T00:53:59;16.60;99.90
39621;DHT22;25309;48.686;9.170;2023-06-24T00:56:31;16.60;99.90
39621;DHT22;25309;48.686;9.170;2023-06-24T00:58:58;16.50;99.90
39621;DHT22;25309;48.686;9.170;2023-06-24T01:01:30;16.40;99.90
39621;DHT22;25309;48.686;9.170;2023-06-24T01:04:01;16.40;99.90
39621;DHT22;25309;48.686;9.170;2023-06-24T01:06:29;16.40;99.90
39621;DHT22;25309;48.686;9.170;2023-06-24T01:08:57;16.30;99.90
39621;DHT22;25309;48.686;9.170;2023-06-24T01:11:24;16.40;99.90
39621;DHT22;25309;48.686;9.170;2023-06-24T01:13:51;16.30;99.90
39621;DHT22;25309;48.686;9.170;2023-06-24T01:16:23;16.30;99.90
39621;DHT22;25309;48.686;9.170;2023-06-24T01:18:57;16.30;99.90
39621;DHT22;25309;48.686;9.170;2023-06-24T01:21:38;16.30;99.90
39621;DHT22;25309;48.686;9.170;2023-06-24T01:24:24;16.30;99.90
39621;DHT22;25309;48.686;9.170;2023-06-24T01:27:15;16.30;99.90
39621;DHT22;25309;48.686;9.170;2023-06-24T01:29:53;16.30;99.90
39621;DHT22;25309;48.686;9.170;2023-06-24T01:32:26;16.30;99.90
39621;DHT22;25309;48.686;9.170;2023-06-24T01:34:59;16.30;99.90
39621;DHT22;25309;48.686;9.170;2023-06-24T01:37:34;16.30;99.90
39621;DHT22;25309;48.686;9.170;2023-06-24T01:40:05;16.30;99.90
39621;DHT22;25309;48.686;9.170;2023-06-24T01:42:39;16.20;99.90
39621;DHT22;25309;48.686;9.170;2023-06-24T01:45:12;16.20;99.90
39621;DHT22;25309;48.686;9.170;2023-06-24T01:47:44;16.20;99.90
39621;DHT22;25309;48.686;9.170;2023-06-24T01:50:12;16.20;99.90
39621;DHT22;25309;48.686;9.170;2023-06-24T01:52:42;16.10;99.90
39621;DHT22;25309;48.686;9.170;2023-06-24T01:55:11;16.10;99.90
39621;DHT22;25309;48.686;9.170;2023-06-24T01:57:40;16.00;99.90
39621;DHT22;25309;48.686;9.170;2023-06-24T02:00:09;16.00;99.90
39621;DHT22;25309;48.686;9.170;2023-06-24T02:02:59;15.90;99.90
39621;DHT22;25309;48.686;9.170;2023-06-24T02:05:28;15.80;99.90
39621;DHT22;25309;48.686;9.170;2023-06-24T02:07:56;15.80;99.90
39621;DHT22;25309;48.686;9.170;2023-06-24T02:10:24;15.70;99.90
39621;DHT22;25309;48.686;9.170;2023-06-24T02:12:53;15.70;99.90
39621;DHT22;25309;48.686;9.170;2023-06-24T02:15:21;15.70;99.90
39621;DHT22;25309;48.686;9.170;2023-06-24T02:17:50;15.70;99.90
39621;DHT22;25309;48.686;9.170;2023-06-24T02:20:19;15.60;99.90
39621;DHT22;25309;48.686;9.170;2023-06-24T02:22:50;15.60;99.90
39621;DHT22;25309;48.686;9.170;2023-06-24T02:25:17;15.50;99.90
39621;DHT22;25309;48.686;9.170;2023-06-24T02:27:44;15.50;99.90
39621;DHT22;25309;48.686;9.170;2023-06-24T02:30:13;15.50;99.90
39621;DHT22;25309;48.686;9.170;2023-06-24T02:32:41;15.50;99.90
39621;DHT22;25309;48.686;9.170;2023-06-24T02:35:08;15.60;99.90
39621;DHT22;25309;48.686;9.170;2023-06-24T02:37:36;15.60;99.90
39621;DHT22;25309;48.686;9.170;2023-06-24T02:40:05;15.60;99.90
39621;DHT22;25309;48.686;9.170;2023-06-24T02:42:32;15.60;99.90
39621;DHT22;25309;48.686;9.170;2023-06-24T02:45:00;15.60;99.90
39621;DHT22;25309;48.686;9.170;2023-06-24T02:47:28;15.60;99.90
39621;DHT22;25309;48.686;9.170;2023-06-24T02:49:56;15.60;99.90
39621;DHT22;25309;48.686;9.170;2023-06-24T02:52:25;15.60;99.90
39621;DHT22;25309;48.686;9.170;2023-06-24T02:54:57;15.60;99.90
39621;DHT22;25309;48.686;9.170;2023-06-24T02:57:37;15.60;99.90
39621;DHT22;25309;48.686;9.170;2023-06-24T03:00:19;15.50;99.90
39621;DHT22;25309;48.686;9.170;2023-06-24T03:03:10;15.50;99.90
39621;DHT22;25309;48.686;9.170;2023-06-24T03:05:44;15.40;99.90
39621;DHT22;25309;48.686;9.170;2023-06-24T03:08:15;15.40;99.90
39621;DHT22;25309;48.686;9.170;2023-06-24T03:10:48;15.40;99.90
39621;DHT22;25309;48.686;9.170;2023-06-24T03:13:19;15.40;99.90
39621;DHT22;25309;48.686;9.170;2023-06-24T03:15:53;15.50;99.90
39621;DHT22;25309;48.686;9.170;2023-06-24T03:18:20;15.50;99.90
39621;DHT22;25309;48.686;9.170;2023-06-24T03:20:48;15.50;99.90
39621;DHT22;25309;48.686;9.170;2023-06-24T03:23:19;15.50;99.90
39621;DHT22;25309;48.686;9.170;2023-06-24T03:25:47;15.50;99.90
39621;DHT22;25309;48.686;9.170;2023-06-24T03:28:15;15.50;99.90
39621;DHT22;25309;48.686;9.170;2023-06-24T03:30:51;15.50;99.90
39621;DHT22;25309;48.686;9.170;2023-06-24T03:33:19;15.40;99.90
39621;DHT22;25309;48.686;9.170;2023-06-24T03:35:46;15.40;99.90
39621;DHT22;25309;48.686;9.170;2023-06-24T03:38:18;15.40;99.90
39621;DHT22;25309;48.686;9.170;2023-06-24T03:40:47;15.40;99.90
39621;DHT22;25309;48.686;9.170;2023-06-24T03:43:14;15.40;99.90
39621;DHT22;25309;48.686;9.170;2023-06-24T03:45:42;15.40;99.90
39621;DHT22;25309;48.686;9.170;2023-06-24T03:48:09;15.40;99.90
39621;DHT22;25309;48.686;9.170;2023-06-24T03:50:36;15.40;99.90
39621;DHT22;25309;48.686;9.170;2023-06-24T03:53:04;15.40;99.90
39621;DHT22;25309;48.686;9.170;2023-06-24T03:55:31;15.40;99.90
39621;DHT22;25309;48.686;9.170;2023-06-24T03:58:00;15.50;99.90
39621;DHT22;25309;48.686;9.170;2023-06-24T04:00:27;15.50;99.90
39621;DHT22;25309;48.686;9.170;2023-06-24T04:02:54;15.50;99.90
39621;DHT22;25309;48.686;9.170;2023-06-24T04:05:22;15.60;99.90
39621;DHT22;25309;48.686;9.170;2023-06-24T04:07:49;15.60;99.90
39621;DHT22;25309;48.686;9.170;2023-06-24T04:10:17;15.70;99.90
39621;DHT22;25309;48.686;9.170;2023-06-24T04:12:45;15.70;99.90
39621;DHT22;25309;48.686;9.170;2023-06-24T04:15:14;15.80;99.90
39621;DHT22;25309;48.686;9.170;2023-06-24T04:17:41;15.80;99.90
39621;DHT22;25309;48.686;9.170;2023-06-24T04:20:09;15.90;99.90
39621;DHT22;25309;48.686;9.170;2023-06-24T04:22:37;15.90;99.90
39621;DHT22;25309;48.686;9.170;2023-06-24T04:25:05;15.90;99.90
39621;DHT22;25309;48.686;9.170;2023-06-24T04:27:35;16.00;99.90
39621;DHT22;25309;48.686;9.170;2023-06-24T04:30:04;16.00;99.90
39621;DHT22;25309;48.686;9.170;2023-06-24T04:32:33;16.00;99.90
39621;DHT22;25309;48.686;9.170;2023-06-24T04:35:00;16.00;99.90
39621;DHT22;25309;48.686;9.170;2023-06-24T04:37:28;16.10;99.90
39621;DHT22;25309;48.686;9.170;2023-06-24T04:39:56;16.10;99.90
39621;DHT22;25309;48.686;9.170;2023-06-24T04:42:23;16.10;99.90
39621;DHT22;25309;48.686;9.170;2023-06-24T04:44:50;16.10;99.90
39621;DHT22;25309;48.686;9.170;2023-06-24T04:47:18;16.20;99.90
39621;DHT22;25309;48.686;9.170;2023-06-24T04:49:46;16.20;99.90
39621;DHT22;25309;48.686;9.170;2023-06-24T04:52:14;16.30;99.90
39621;DHT22;25309;48.686;9.170;2023-06-24T04:54:41;16.30;99.90
39621;DHT22;25309;48.686;9.170;2023-06-24T04:57:09;16.30;99.90
39621;DHT22;25309;48.686;9.170;2023-06-24T04:59:36;16.30;99.90
39621;DHT22;25309;48.686;9.170;2023-06-24T05:02:05;16.40;99.90
39621;DHT22;25309;48.686;9.170;2023-06-24T05:04:32;16.30;99.90
39621;DHT22;25309;48.686;9.170;2023-06-24T05:07:00;16.40;99.90
39621;DHT22;25309;48.686;9.170;2023-06-24T05:09:27;16.40;99.90
39621;DHT22;25309;48.686;9.170;2023-06-24T05:11:54;16.40;99.90
39621;DHT22;25309;48.686;9.170;2023-06-24T05:14:21;16.40;99.90
39621;DHT22;25309;48.686;9.170;2023-06-24T05:16:48;16.40;99.90
39621;DHT22;25309;48.686;9.170;2023-06-24T05:19:15;16.40;99.90
39621;DHT22;25309;48.686;9.170;2023-06-24T05:21:43;16.50;99.90
39621;DHT22;25309;48.686;9.170;2023-06-24T05:24:11;16.50;99.90
39621;DHT22;25309;48.686;9.170;2023-06-24T05:26:38;16.50;99.90
39621;DHT22;25309;48.686;9.170;2023-06-24T05:29:05;16.50;99.90
39621;DHT22;25309;48.686;9.170;2023-06-24T05:31:32;16.60;99.90
39621;DHT22;25309;48.686;9.170;2023-06-24T05:33:59;16.60;99.90
39621;DHT22;25309;48.686;9.170;2023-06-24T05:36:26;16.70;99.90
39621;DHT22;25309;48.686;9.170;2023-06-24T05:38:53;16.70;99.90
39621;DHT22;25309;48.686;9.170;2023-06-24T05:41:22;16.80;99.90
39621;DHT22;25309;48.686;9.170;2023-06-24T05:44:01;16.80;99.90
39621;DHT22;25309;48.686;9.170;2023-06-24T05:46:28;16.90;99.90
39621;DHT22;25309;48.686;9.170;2023-06-24T05:48:55;16.90;99.90
39621;DHT22;25309;48.686;9.170;2023-06-24T05:51:22;17.00;99.90
39621;DHT22;25309;48.686;9.170;2023-06-24T05:53:50;17.00;99.90
39621;DHT22;25309;48.686;9.170;2023-06-24T05:56:17;17.10;99.90
39621;DHT22;25309;48.686;9.170;2023-06-24T05:58:45;17.10;99.90
39621;DHT22;25309;48.686;9.170;2023-06-24T06:01:12;17.20;99.90
39621;DHT22;25309;48.686;9.170;2023-06-24T06:03:39;17.20;99.90
39621;DHT22;25309;48.686;9.170;2023-06-24T06:06:06;17.30;99.90
39621;DHT22;25309;48.686;9.170;2023-06-24T06:08:34;17.40;99.90
39621;DHT22;25309;48.686;9.170;2023-06-24T06:11:01;17.40;99.90
39621;DHT22;25309;48.686;9.170;2023-06-24T06:13:32;17.50;99.90
39621;DHT22;25309;48.686;9.170;2023-06-24T06:16:00;17.60;99.90
39621;DHT22;25309;48.686;9.170;2023-06-24T06:18:27;17.60;99.90
39621;DHT22;25309;48.686;9.170;2023-06-24T06:20:54;17.70;99.90
39621;DHT22;25309;48.686;9.170;2023-06-24T06:23:21;17.80;99.90
39621;DHT22;25309;48.686;9.170;2023-06-24T06:25:48;17.90;99.90
39621;DHT22;25309;48.686;9.170;2023-06-24T06:28:15;18.00;99.90
39621;DHT22;25309;48.686;9.170;2023-06-24T06:30:43;18.00;99.90
39621;DHT22;25309;48.686;9.170;2023-06-24T06:33:11;18.00;99.90
39621;DHT22;25309;48.686;9.170;2023-06-24T06:35:38;18.20;99.90
39621;DHT22;25309;48.686;9.170;2023-06-24T06:38:05;18.20;99.90
39621;DHT22;25309;48.686;9.170;2023-06-24T06:40:32;18.30;99.90
39621;DHT22;25309;48.686;9.170;2023-06-24T06:42:59;18.40;99.90
39621;DHT22;25309;48.686;9.170;2023-06-24T06:45:26;18.40;99.90
39621;DHT22;25309;48.686;9.170;2023-06-24T06:47:54;18.50;99.90
39621;DHT22;25309;48.686;9.170;2023-06-24T06:50:22;18.60;99.90
39621;DHT22;25309;48.686;9.170;2023-06-24T06:52:49;18.70;99.90
39621;DHT22;25309;48.686;9.170;2023-06-24T06:55:16;18.80;99.90
39621;DHT22;25309;48.686;9.170;2023-06-24T06:57:43;18.90;99.90
39621;DHT22;25309;48.686;9.170;2023-06-24T07:00:11;18.90;99.90
39621;DHT22;25309;48.686;9.170;2023-06-24T07:02:38;19.00;99.90
39621;DHT22;25309;48.686;9.170;2023-06-24T07:05:06;19.10;99.90
39621;DHT22;25309;48.686;9.170;2023-06-24T07:07:34;19.30;99.90
39621;DHT22;25309;48.686;9.170;2023-06-24T07:10:01;19.30;99.90
39621;DHT22;25309;48.686;9.170;2023-06-24T07:12:28;19.30;99.90
39621;DHT22;25309;48.686;9.170;2023-06-24T07:14:55;19.40;99.90
39621;DHT22;25309;48.686;9.170;2023-06-24T07:17:22;19.50;99.90
39621;DHT22;25309;48.686;9.170;2023-06-24T07:19:49;19.50;99.90
39621;DHT22;25309;48.686;9.170;2023-06-24T07:22:16;19.60;99.90
39621;DHT22;25309;48.686;9.170;2023-06-24T07:24:45;19.70;99.90
39621;DHT22;25309;48.686;9.170;2023-06-24T07:27:12;19.80;99.90
39621;DHT22;25309;48.686;9.170;2023-06-24T07:29:39;19.80;99.90
39621;DHT22;25309;48.686;9.170;2023-06-24T07:32:06;19.90;99.90
39621;DHT22;25309;48.686;9.170;2023-06-24T07:34:34;20.00;99.90
39621;DHT22;25309;48.686;9.170;2023-06-24T07:37:01;20.10;99.90
39621;DHT22;25309;48.686;9.170;2023-06-24T07:39:49;20.20;99.90
39621;DHT22;25309;48.686;9.170;2023-06-24T07:42:16;20.30;99.90
39621;DHT22;25309;48.686;9.170;2023-06-24T07:44:46;20.30;99.70
39621;DHT22;25309;48.686;9.170;2023-06-24T07:47:13;20.40;99.70
39621;DHT22;25309;48.686;9.170;2023-06-24T07:49:40;20.40;99.90
39621;DHT22;25309;48.686;9.170;2023-06-24T07:52:07;20.50;99.40
39621;DHT22;25309;48.686;9.170;2023-06-24T07:54:34;20.50;99.90
39621;DHT22;25309;48.686;9.170;2023-06-24T07:57:04;20.70;99.50
39621;DHT22;25309;48.686;9.170;2023-06-24T07:59:31;20.80;99.40
39621;DHT22;25309;48.686;9.170;2023-06-24T08:01:58;21.00;99.10
39621;DHT22;25309;48.686;9.170;2023-06-24T08:04:25;21.10;97.60
39621;DHT22;25309;48.686;9.170;2023-06-24T08:06:52;21.20;97.50
39621;DHT22;25309;48.686;9.170;2023-06-24T08:09:19;21.20;96.90
39621;DHT22;25309;48.686;9.170;2023-06-24T08:11:46;21.40;97.80
39621;DHT22;25309;48.686;9.170;2023-06-24T08:14:14;21.50;97.90
39621;DHT22;25309;48.686;9.170;2023-06-24T08:16:41;21.70;97.30
39621;DHT22;25309;48.686;9.170;2023-06-24T08:19:08;21.80;96.50
39621;DHT22;25309;48.686;9.170;2023-06-24T08:21:35;21.90;96.20
39621;DHT22;25309;48.686;9.170;2023-06-24T08:24:04;22.00;96.40
39621;DHT22;25309;48.686;9.170;2023-06-24T08:26:31;22.00;95.90
39621;DHT22;25309;48.686;9.170;2023-06-24T08:28:58;22.10;95.30
39621;DHT22;25309;48.686;9.170;2023-06-24T08:31:31;22.20;96.20
39621;DHT22;25309;48.686;9.170;2023-06-24T08:33:59;22.40;96.10
39621;DHT22;25309;48.686;9.170;2023-06-24T08:36:28;22.50;94.40
39621;DHT22;25309;48.686;9.170;2023-06-24T08:38:56;22.60;94.10
39621;DHT22;25309;48.686;9.170;2023-06-24T08:41:23;22.70;94.40
39621;DHT22;25309;48.686;9.170;2023-06-24T08:43:52;22.80;94.10
39621;DHT22;25309;48.686;9.170;2023-06-24T08:46:20;22.80;94.40
39621;DHT22;25309;48.686;9.170;2023-06-24T08:48:51;22.80;93.60
39621;DHT22;25309;48.686;9.170;2023-06-24T08:51:24;22.70;93.40
39621;DHT22;25309;48.686;9.170;2023-06-24T08:53:54;22.80;93.30
39621;DHT22;25309;48.686;9.170;2023-06-24T08:56:21;22.90;93.50
39621;DHT22;25309;48.686;9.170;2023-06-24T08:58:48;22.90;92.30
39621;DHT22;25309;48.686;9.170;2023-06-24T09:01:15;23.00;92.60
39621;DHT22;25309;48.686;9.170;2023-06-24T09:03:43;23.00;92.20
39621;DHT22;25309;48.686;9.170;2023-06-24T09:06:11;23.10;91.30
39621;DHT22;25309;48.686;9.170;2023-06-24T09:08:38;23.20;91.10
39621;DHT22;25309;48.686;9.170;2023-06-24T09:11:08;23.30;90.70
39621;DHT22;25309;48.686;9.170;2023-06-24T09:13:35;23.40;90.10
39621;DHT22;25309;48.686;9.170;2023-06-24T09:16:13;23.50;91.10
39621;DHT22;25309;48.686;9.170;2023-06-24T09:18:41;23.50;90.70
39621;DHT22;25309;48.686;9.170;2023-06-24T09:21:11;23.60;90.40
39621;DHT22;25309;48.686;9.170;2023-06-24T09:23:38;23.80;90.00
39621;DHT22;25309;48.686;9.170;2023-06-24T09:26:09;23.90;88.80
39621;DHT22;25309;48.686;9.170;2023-06-24T09:28:37;24.10;87.50
39621;DHT22;25309;48.686;9.170;2023-06-24T09:31:05;24.20;86.00
39621;DHT22;25309;48.686;9.170;2023-06-24T09:33:45;24.30;85.70
39621;DHT22;25309;48.686;9.170;2023-06-24T09:36:15;24.50;84.30
39621;DHT22;25309;48.686;9.170;2023-06-24T09:38:43;24.70;83.40
39621;DHT22;25309;48.686;9.170;2023-06-24T09:41:14;24.80;83.20
39621;DHT22;25309;48.686;9.170;2023-06-24T09:43:42;24.90;84.80
39621;DHT22;25309;48.686;9.170;2023-06-24T09:46:12;25.00;82.20
39621;DHT22;25309;48.686;9.170;2023-06-24T09:48:39;25.20;83.80
39621;DHT22;25309;48.686;9.170;2023-06-24T09:51:07;25.40;84.10
39621;DHT22;25309;48.686;9.170;2023-06-24T09:53:37;25.60;84.30
39621;DHT22;25309;48.686;9.170;2023-06-24T09:56:07;25.70;80.60
39621;DHT22;25309;48.686;9.170;2023-06-24T09:58:36;25.70;80.50
39621;DHT22;25309;48.686;9.170;2023-06-24T10:01:05;25.70;79.90
39621;DHT22;25309;48.686;9.170;2023-06-24T10:03:34;25.70;81.60
39621;DHT22;25309;48.686;9.170;2023-06-24T10:06:03;25.80;82.40
39621;DHT22;25309;48.686;9.170;2023-06-24T10:08:31;26.10;80.40
39621;DHT22;25309;48.686;9.170;2023-06-24T10:11:00;26.30;78.50
39621;DHT22;25309;48.686;9.170;2023-06-24T10:13:29;26.40;77.00
39621;DHT22;25309;48.686;9.170;2023-06-24T10:15:56;26.60;76.80
39621;DHT22;25309;48.686;9.170;2023-06-24T10:18:33;26.70;79.40
39621;DHT22;25309;48.686;9.170;2023-06-24T10:21:03;26.90;74.90
39621;DHT22;25309;48.686;9.170;2023-06-24T10:23:32;27.20;76.20
39621;DHT22;25309;48.686;9.170;2023-06-24T10:26:01;27.30;73.10
39621;DHT22;25309;48.686;9.170;2023-06-24T10:29:09;27.20;74.50
39621;DHT22;25309;48.686;9.170;2023-06-24T10:31:53;27.10;75.90
39621;DHT22;25309;48.686;9.170;2023-06-24T10:34:29;27.40;73.50
39621;DHT22;25309;48.686;9.170;2023-06-24T10:36:59;27.60;70.90
39621;DHT22;25309;48.686;9.170;2023-06-24T10:39:45;27.70;71.70
39621;DHT22;25309;48.686;9.170;2023-06-24T10:42:29;28.00;73.90
39621;DHT22;25309;48.686;9.170;2023-06-24T10:44:57;28.30;73.90
39621;DHT22;25309;48.686;9.170;2023-06-24T10:47:25;28.40;73.00
39621;DHT22;25309;48.686;9.170;2023-06-24T10:49:53;28.50;71.40
39621;DHT22;25309;48.686;9.170;2023-06-24T10:52:21;28.40;71.10
39621;DHT22;25309;48.686;9.170;2023-06-24T10:54:50;28.30;70.60
39621;DHT22;25309;48.686;9.170;2023-06-24T10:57:21;28.20;72.10
39621;DHT22;25309;48.686;9.170;2023-06-24T10:59:54;28.20;71.60
39621;DHT22;25309;48.686;9.170;2023-06-24T11:02:23;28.30;71.80
39621;DHT22;25309;48.686;9.170;2023-06-24T11:04:52;28.20;70.30
39621;DHT22;25309;48.686;9.170;2023-06-24T11:07:21;28.00;70.90
39621;DHT22;25309;48.686;9.170;2023-06-24T11:09:50;28.00;72.00
39621;DHT22;25309;48.686;9.170;2023-06-24T11:12:18;28.00;69.20
39621;DHT22;25309;48.686;9.170;2023-06-24T11:14:45;28.20;70.60
39621;DHT22;25309;48.686;9.170;2023-06-24T11:17:14;28.10;69.80
39621;DHT22;25309;48.686;9.170;2023-06-24T11:19:40;28.10;69.30
39621;DHT22;25309;48.686;9.170;2023-06-24T11:22:08;28.00;68.30
39621;DHT22;25309;48.686;9.170;2023-06-24T11:24:35;28.00;68.50
39621;DHT22;25309;48.686;9.170;2023-06-24T11:27:04;28.20;69.20
39621;DHT22;25309;48.686;9.170;2023-06-24T11:29:32;28.10;65.60
39621;DHT22;25309;48.686;9.170;2023-06-24T11:32:01;28.10;67.90
39621;DHT22;25309;48.686;9.170;2023-06-24T11:34:30;28.20;68.10
39621;DHT22;25309;48.686;9.170;2023-06-24T11:36:57;28.30;68.40
39621;DHT22;25309;48.686;9.170;2023-06-24T11:39:25;28.50;69.00
39621;DHT22;25309;48.686;9.170;2023-06-24T11:41:53;28.60;68.00
39621;DHT22;25309;48.686;9.170;2023-06-24T11:44:20;28.70;67.40
39621;DHT22;25309;48.686;9.170;2023-06-24T11:46:47;28.70;67.90
39621;DHT22;25309;48.686;9.170;2023-06-24T11:49:15;28.80;67.50
39621;DHT22;25309;48.686;9.170;2023-06-24T11:51:48;28.80;66.90
39621;DHT22;25309;48.686;9.170;2023-06-24T11:54:17;28.80;67.20
39621;DHT22;25309;48.686;9.170;2023-06-24T11:56:49;28.80;68.10
39621;DHT22;25309;48.686;9.170;2023-06-24T11:59:17;28.70;68.50
39621;DHT22;25309;48.686;9.170;2023-06-24T12:01:44;28.70;69.10
39621;DHT22;25309;48.686;9.170;2023-06-24T12:04:12;28.80;68.10
39621;DHT22;25309;48.686;9.170;2023-06-24T12:06:40;28.90;68.00
39621;DHT22;25309;48.686;9.170;2023-06-24T12:09:09;29.00;66.60
39621;DHT22;25309;48.686;9.170;2023-06-24T12:11:37;29.00;65.80
39621;DHT22;25309;48.686;9.170;2023-06-24T12:14:06;28.90;68.10
39621;DHT22;25309;48.686;9.170;2023-06-24T12:16:33;29.00;65.20
39621;DHT22;25309;48.686;9.170;2023-06-24T12:19:00;28.90;65.40
39621;DHT22;25309;48.686;9.170;2023-06-24T12:21:27;28.80;65.80
39621;DHT22;25309;48.686;9.170;2023-06-24T12:23:54;28.80;67.10
39621;DHT22;25309;48.686;9.170;2023-06-24T12:26:22;28.90;66.10
39621;DHT22;25309;48.686;9.170;2023-06-24T12:28:49;28.80;65.40
39621;DHT22;25309;48.686;9.170;2023-06-24T12:31:16;28.80;66.30
39621;DHT22;25309;48.686;9.170;2023-06-24T12:33:43;28.70;63.60
39621;DHT22;25309;48.686;9.170;2023-06-24T12:36:10;28.70;65.70
39621;DHT22;25309;48.686;9.170;2023-06-24T12:38:37;28.80;65.80
39621;DHT22;25309;48.686;9.170;2023-06-24T12:41:04;28.90;67.00
39621;DHT22;25309;48.686;9.170;2023-06-24T12:43:33;29.00;65.40
39621;DHT22;25309;48.686;9.170;2023-06-24T12:46:00;29.20;64.90
39621;DHT22;25309;48.686;9.170;2023-06-24T12:48:27;29.30;62.60
39621;DHT22;25309;48.686;9.170;2023-06-24T12:50:54;29.20;63.00
39621;DHT22;25309;48.686;9.170;2023-06-24T12:53:21;29.20;62.60
39621;DHT22;25309;48.686;9.170;2023-06-24T12:55:49;29.00;63.60
39621;DHT22;25309;48.686;9.170;2023-06-24T12:58:19;29.10;64.10
39621;DHT22;25309;48.686;9.170;2023-06-24T13:00:48;29.10;64.00
39621;DHT22;25309;48.686;9.170;2023-06-24T13:03:15;29.20;63.40
39621;DHT22;25309;48.686;9.170;2023-06-24T13:05:42;29.20;63.10
39621;DHT22;25309;48.686;9.170;2023-06-24T13:08:09;29.20;62.80
39621;DHT22;25309;48.686;9.170;2023-06-24T13:10:37;29.30;62.10
39621;DHT22;25309;48.686;9.170;2023-06-24T13:13:07;29.40;61.20
39621;DHT22;25309;48.686;9.170;2023-06-24T13:15:34;29.30;60.60
39621;DHT22;25309;48.686;9.170;2023-06-24T13:18:03;29.40;63.30
39621;DHT22;25309;48.686;9.170;2023-06-24T13:20:30;29.50;61.60
39621;DHT22;25309;48.686;9.170;2023-06-24T13:22:57;29.60;61.90
39621;DHT22;25309;48.686;9.170;2023-06-24T13:25:24;29.60;60.50
39621;DHT22;25309;48.686;9.170;2023-06-24T13:27:51;29.60;61.30
39621;DHT22;25309;48.686;9.170;2023-06-24T13:30:18;29.60;62.70
39621;DHT22;25309;48.686;9.170;2023-06-24T13:32:46;29.70;61.00
39621;DHT22;25309;48.686;9.170;2023-06-24T13:35:14;29.80;61.40
39621;DHT22;25309;48.686;9.170;2023-06-24T13:37:41;29.90;61.70
39621;DHT22;25309;48.686;9.170;2023-06-24T13:40:10;29.90;60.90
39621;DHT22;25309;48.686;9.170;2023-06-24T13:42:37;29.90;62.70
39621;DHT22;25309;48.686;9.170;2023-06-24T13:45:05;30.00;61.10
39621;DHT22;25309;48.686;9.170;2023-06-24T13:47:32;30.00;60.90
39621;DHT22;25309;48.686;9.170;2023-06-24T13:49:59;30.10;62.40
39621;DHT22;25309;48.686;9.170;2023-06-24T13:52:28;30.10;61.10
39621;DHT22;25309;48.686;9.170;2023-06-24T13:54:55;30.10;61.50
39621;DHT22;25309;48.686;9.170;2023-06-24T13:57:22;30.20;61.50
39621;DHT22;25309;48.686;9.170;2023-06-24T13:59:49;30.40;61.20
39621;DHT22;25309;48.686;9.170;2023-06-24T14:02:16;30.30;60.60
39621;DHT22;25309;48.686;9.170;2023-06-24T14:04:43;30.20;61.00
39621;DHT22;25309;48.686;9.170;2023-06-24T14:07:10;30.20;59.70
39621;DHT22;25309;48.686;9.170;2023-06-24T14:09:38;30.20;61.20
39621;DHT22;25309;48.686;9.170;2023-06-24T14:12:07;30.30;60.50
39621;DHT22;25309;48.686;9.170;2023-06-24T14:14:35;30.30;60.30
39621;DHT22;25309;48.686;9.170;2023-06-24T14:17:06;30.20;61.60
39621;DHT22;25309;48.686;9.170;2023-06-24T14:19:35;30.10;61.40
39621;DHT22;25309;48.686;9.170;2023-06-24T14:22:02;30.10;61.90
39621;DHT22;25309;48.686;9.170;2023-06-24T14:24:29;30.20;61.00
39621;DHT22;25309;48.686;9.170;2023-06-24T14:26:58;30.10;60.10
39621;DHT22;25309;48.686;9.170;2023-06-24T14:29:25;30.00;62.00
39621;DHT22;25309;48.686;9.170;2023-06-24T14:31:52;29.90;60.30
39621;DHT22;25309;48.686;9.170;2023-06-24T14:34:19;29.80;61.60
39621;DHT22;25309;48.686;9.170;2023-06-24T14:36:46;29.80;60.50
39621;DHT22;25309;48.686;9.170;2023-06-24T14:39:15;29.80;61.50
39621;DHT22;25309;48.686;9.170;2023-06-24T14:41:45;30.00;61.00
39621;DHT22;25309;48.686;9.170;2023-06-24T14:44:13;30.30;61.40
39621;DHT22;25309;48.686;9.170;2023-06-24T14:46:40;30.60;60.70
39621;DHT22;25309;48.686;9.170;2023-06-24T14:49:07;30.80;60.90
39621;DHT22;25309;48.686;9.170;2023-06-24T14:51:34;31.10;60.60
39621;DHT22;25309;48.686;9.170;2023-06-24T14:54:01;31.30;60.30
39621;DHT22;25309;48.686;9.170;2023-06-24T14:56:28;31.50;59.90
39621;DHT22;25309;48.686;9.170;2023-06-24T14:58:57;31.60;59.80
39621;DHT22;25309;48.686;9.170;2023-06-24T15:01:25;31.50;57.90
39621;DHT22;25309;48.686;9.170;2023-06-24T15:03:52;31.10;58.30
39621;DHT22;25309;48.686;9.170;2023-06-24T15:06:20;30.60;59.40
39621;DHT22;25309;48.686;9.170;2023-06-24T15:08:47;30.40;60.60
39621;DHT22;25309;48.686;9.170;2023-06-24T15:11:13;30.00;59.90
39621;DHT22;25309;48.686;9.170;2023-06-24T15:13:40;29.80;61.10
39621;DHT22;25309;48.686;9.170;2023-06-24T15:16:07;29.70;61.10
39621;DHT22;25309;48.686;9.170;2023-06-24T15:18:44;29.70;61.40
39621;DHT22;25309;48.686;9.170;2023-06-24T15:21:11;29.50;60.60
39621;DHT22;25309;48.686;9.170;2023-06-24T15:23:53;29.40;60.30
39621;DHT22;25309;48.686;9.170;2023-06-24T15:26:20;29.30;61.00
39621;DHT22;25309;48.686;9.170;2023-06-24T15:28:46;29.20;60.90
39621;DHT22;25309;48.686;9.170;2023-06-24T15:31:14;29.10;61.10
39621;DHT22;25309;48.686;9.170;2023-06-24T15:33:43;29.00;60.90
39621;DHT22;25309;48.686;9.170;2023-06-24T15:36:10;28.90;61.90
39621;DHT22;25309;48.686;9.170;2023-06-24T15:38:36;28.80;61.60
39621;DHT22;25309;48.686;9.170;2023-06-24T15:41:03;28.80;61.40